Time;durP1;ratioP1;P1;durP2;ratioP2;P2;SDS_P1;SDS_P2;PMS_P1;PMS_P2;Temp;Humidity;BMP_temperature;BMP_pressure;BME280_temperature;BME280_humidity;BME280_pressure;Samples;Min_cycle;Max_cycle;Signal;HPM_P1;HPM_P2
2022/02/15 00:00:35;;;;;;;5.85;1.40;;;;;;;5.46;97.61;97810.53;5083172;28;20052;-70
2022/02/15 00:03:01;;;;;;;7.47;1.98;;;;;;;5.58;97.62;97810.38;5083257;28;20027;-70
2022/02/15 00:05:26;;;;;;;5.57;1.92;;;;;;;5.65;97.79;97812.03;5082923;28;20016;-70
2022/02/15 00:07:52;;;;;;;2.80;1.50;;;;;;;5.84;97.30;97813.53;5083255;28;20020;-70
2022/02/15 00:10:18;;;;;;;6.22;1.75;;;;;;;5.85;97.18;97805.69;5083195;28;20312;-70
2022/02/15 00:12:43;;;;;;;5.10;1.85;;;;;;;5.87;97.44;97803.03;5079528;28;20031;-70
2022/02/15 00:15:10;;;;;;;3.85;1.90;;;;;;;6.05;97.15;97808.00;5083108;28;20250;-70
2022/02/15 00:17:36;;;;;;;2.17;1.63;;;;;;;6.06;97.25;97814.94;5083384;28;20044;-70
2022/02/15 00:20:04;;;;;;;4.30;2.22;;;;;;;6.11;97.25;97808.78;5082928;28;20046;-70
2022/02/15 00:22:30;;;;;;;5.80;2.03;;;;;;;6.16;97.09;97801.75;5082320;28;20024;-70
2022/02/15 00:24:55;;;;;;;8.45;2.22;;;;;;;6.24;96.52;97814.69;5082951;28;20083;-70
2022/02/15 00:27:20;;;;;;;4.82;2.20;;;;;;;6.28;96.51;97801.56;5082990;28;20216;-70
2022/02/15 00:29:46;;;;;;;5.97;1.65;;;;;;;6.30;96.49;97801.53;5082987;28;20312;-70
2022/02/15 00:32:11;;;;;;;2.92;1.77;;;;;;;6.36;96.44;97809.28;5082596;28;20060;-70
2022/02/15 00:34:37;;;;;;;5.65;2.13;;;;;;;6.44;96.42;97796.94;5083025;28;20492;-70
2022/02/15 00:37:02;;;;;;;6.57;2.15;;;;;;;6.51;96.31;97795.94;5083025;28;20035;-70
2022/02/15 00:39:28;;;;;;;4.97;1.70;;;;;;;6.63;96.19;97804.44;5082811;28;20401;-70
2022/02/15 00:41:53;;;;;;;6.43;2.28;;;;;;;6.64;96.28;97805.28;5082934;28;20023;-70
2022/02/15 00:44:19;;;;;;;7.03;1.58;;;;;;;6.65;96.29;97807.88;5082902;28;20028;-70
2022/02/15 00:46:45;;;;;;;3.78;1.92;;;;;;;6.58;96.32;97810.63;5082769;28;20016;-70
2022/02/15 00:49:11;;;;;;;3.80;1.85;;;;;;;6.63;96.11;97809.69;5082654;28;20207;-70
2022/02/15 00:51:36;;;;;;;10.52;2.15;;;;;;;6.67;96.53;97815.69;5083101;28;20019;-70
2022/02/15 00:54:02;;;;;;;5.85;2.30;;;;;;;6.70;96.24;97812.19;5082970;28;20024;-70
2022/02/15 00:56:28;;;;;;;6.20;2.33;;;;;;;6.67;95.71;97820.94;5082613;28;20379;-70
2022/02/15 00:58:53;;;;;;;7.55;2.45;;;;;;;6.76;95.75;97826.00;5082584;28;20048;-70
2022/02/15 01:01:19;;;;;;;11.65;2.70;;;;;;;6.76;95.77;97825.13;5082566;28;20021;-70
2022/02/15 01:03:44;;;;;;;3.10;2.28;;;;;;;6.72;95.67;97823.47;5082908;28;20087;-70
2022/02/15 01:06:09;;;;;;;4.25;2.25;;;;;;;6.81;96.20;97826.81;5082375;28;20197;-70
2022/02/15 01:08:35;;;;;;;6.65;2.70;;;;;;;6.81;95.95;97824.19;5083086;28;20016;-70
2022/02/15 01:11:00;;;;;;;6.22;2.25;;;;;;;6.77;96.42;97822.50;5082475;28;20012;-70
2022/02/15 01:13:26;;;;;;;3.28;2.20;;;;;;;6.82;96.59;97827.66;5082449;28;20039;-70
2022/02/15 01:15:52;;;;;;;4.57;1.73;;;;;;;6.85;96.60;97825.84;5082414;28;20020;-70
2022/02/15 01:18:17;;;;;;;5.50;2.05;;;;;;;6.81;97.12;97834.66;5082632;28;20220;-70
2022/02/15 01:20:43;;;;;;;11.23;2.22;;;;;;;6.79;97.44;97825.09;5082337;28;20059;-70
2022/02/15 01:23:08;;;;;;;5.18;2.58;;;;;;;6.75;97.47;97829.53;5082518;28;20032;-70
2022/02/15 01:25:33;;;;;;;6.38;2.70;;;;;;;6.76;97.25;97833.84;5082374;28;20040;-70
2022/02/15 01:27:58;;;;;;;4.30;2.38;;;;;;;6.74;97.10;97833.00;5082413;28;20092;-70
2022/02/15 01:30:24;;;;;;;5.75;3.00;;;;;;;6.77;97.19;97825.13;5082116;28;20083;-69
2022/02/15 01:32:49;;;;;;;3.88;2.53;;;;;;;6.83;96.76;97832.84;5082539;28;20308;-69
2022/02/15 01:35:15;;;;;;;4.68;2.40;;;;;;;6.77;97.15;97832.97;5086095;28;20042;-70
2022/02/15 01:37:41;;;;;;;5.38;2.50;;;;;;;6.80;97.00;97832.91;5085880;28;20023;-70
2022/02/15 01:40:08;;;;;;;5.20;2.60;;;;;;;6.73;96.78;97831.28;5086275;28;20324;-70
2022/02/15 01:42:34;;;;;;;8.93;2.45;;;;;;;6.80;96.52;97838.13;5085758;28;20024;-70
2022/02/15 01:45:00;;;;;;;4.07;2.47;;;;;;;6.87;96.37;97831.06;5086132;28;20316;-70
2022/02/15 01:47:28;;;;;;;5.13;2.72;;;;;;;6.87;96.20;97833.69;5086144;28;20047;-70
2022/02/15 01:49:54;;;;;;;6.38;2.47;;;;;;;6.76;96.53;97826.00;5085839;28;20058;-70
2022/02/15 01:52:20;;;;;;;4.85;2.45;;;;;;;6.81;96.28;97829.44;5086029;28;20284;-70
2022/02/15 01:54:55;;;;;;;6.15;2.63;;;;;;;6.88;96.15;97825.81;5085992;28;20231;-70
2022/02/15 01:57:22;;;;;;;4.38;2.70;;;;;;;6.85;96.23;97825.84;5085710;28;20028;-70
2022/02/15 01:59:48;;;;;;;5.90;2.65;;;;;;;6.93;95.76;97815.25;5085475;28;20063;-70
2022/02/15 02:02:14;;;;;;;5.75;2.67;;;;;;;7.02;95.57;97826.41;5085843;28;20032;-70
2022/02/15 02:07:28;;;;;;;7.78;2.88;;;;;;;7.00;95.95;97825.59;5085151;28;20055;-69
2022/02/15 02:09:54;;;;;;;8.95;2.53;;;;;;;6.98;95.98;97816.03;5085695;28;20353;-69
2022/02/15 02:12:21;;;;;;;6.07;3.13;;;;;;;7.08;96.07;97823.69;5085514;28;20047;-69
2022/02/15 02:15:24;;;;;;;9.65;3.53;;;;;;;7.07;95.83;97824.59;5085388;28;20330;-69
2022/02/15 02:17:51;;;;;;;6.88;3.42;;;;;;;7.01;95.92;97822.06;5042217;28;20032;-69
2022/02/15 02:20:18;;;;;;;4.70;2.75;;;;;;;7.09;95.70;97814.94;5043556;28;20053;-69
2022/02/15 02:22:44;;;;;;;7.20;3.10;;;;;;;7.12;95.88;97820.09;5043503;28;20029;-69
2022/02/15 02:25:11;;;;;;;8.10;3.15;;;;;;;7.03;96.11;97815.06;5043347;28;20087;-69
2022/02/15 02:27:37;;;;;;;6.00;3.50;;;;;;;6.97;96.08;97819.53;5043619;28;20025;-69
2022/02/15 02:30:03;;;;;;;6.30;2.92;;;;;;;7.02;96.36;97815.94;5043362;28;20059;-69
2022/02/15 02:32:31;;;;;;;5.35;3.30;;;;;;;7.02;96.24;97823.78;5043130;28;20041;-69
2022/02/15 02:34:59;;;;;;;6.82;3.13;;;;;;;7.06;96.32;97841.19;5043189;28;20061;-70
2022/02/15 02:37:25;;;;;;;7.25;4.00;;;;;;;6.97;96.36;97836.09;5043228;28;20029;-70
2022/02/15 02:39:53;;;;;;;6.57;3.25;;;;;;;6.99;96.10;97839.53;5043197;28;20064;-70
2022/02/15 02:42:26;;;;;;;6.45;3.38;;;;;;;7.03;95.97;97835.13;5039749;28;20067;-70
2022/02/15 02:44:53;;;;;;;5.40;3.30;;;;;;;6.98;96.25;97832.59;5042563;28;20108;-70
2022/02/15 02:47:19;;;;;;;11.07;4.15;;;;;;;6.92;96.56;97831.81;5042870;28;20041;-70
2022/02/15 02:49:44;;;;;;;7.35;3.05;;;;;;;6.99;96.04;97838.69;5042983;28;20021;-70
2022/02/15 02:52:10;;;;;;;10.40;3.97;;;;;;;7.03;95.90;97841.22;5071636;28;20034;-70
2022/02/15 02:54:35;;;;;;;12.90;3.70;;;;;;;6.90;96.44;97826.66;5084611;28;20016;-70
2022/02/15 02:57:02;;;;;;;6.28;3.70;;;;;;;6.96;96.45;97839.59;5084828;28;20028;-70
2022/02/15 02:59:31;;;;;;;11.15;4.45;;;;;;;6.96;96.34;97839.59;5084257;28;20012;-70
2022/02/15 03:01:56;;;;;;;11.95;4.20;;;;;;;6.97;96.63;97841.34;5084477;28;20220;-70
2022/02/15 03:04:22;;;;;;;8.68;4.03;;;;;;;6.90;96.63;97833.63;5084795;28;20086;-70
2022/02/15 03:06:48;;;;;;;9.52;4.18;;;;;;;6.95;96.44;97831.78;5084961;28;20016;-70
2022/02/15 03:09:14;;;;;;;8.23;4.45;;;;;;;6.98;95.98;97837.81;5082224;28;20287;-70
2022/02/15 03:11:39;;;;;;;9.75;4.55;;;;;;;6.94;96.21;97835.28;5084847;28;20040;-70
2022/02/15 03:14:05;;;;;;;10.63;4.85;;;;;;;6.90;96.38;97844.97;5084567;28;20320;-70
2022/02/15 03:16:31;;;;;;;7.68;4.20;;;;;;;6.97;96.06;97846.56;5084510;28;20240;-70
2022/02/15 03:18:56;;;;;;;19.42;5.28;;;;;;;6.87;96.52;97844.13;5084517;28;20077;-70
2022/02/15 03:21:22;;;;;;;7.57;4.28;;;;;;;6.93;96.92;97849.28;5084316;28;20013;-70
2022/02/15 03:23:48;;;;;;;7.70;4.05;;;;;;;6.88;96.47;97851.97;5084225;28;20024;-70
2022/02/15 03:26:13;;;;;;;6.35;3.55;;;;;;;6.89;96.43;97851.06;5084960;28;20299;-70
2022/02/15 03:28:39;;;;;;;7.05;3.97;;;;;;;6.85;96.64;97859.84;5085359;28;20028;-70
2022/02/15 03:31:05;;;;;;;8.90;3.97;;;;;;;6.85;96.70;97854.63;5084650;28;20047;-70
2022/02/15 03:33:31;;;;;;;7.63;4.25;;;;;;;6.90;96.86;97867.63;5084064;28;20046;-69
2022/02/15 03:35:57;;;;;;;7.82;4.43;;;;;;;6.82;97.18;97861.66;5084109;28;20019;-69
2022/02/15 03:38:23;;;;;;;7.57;3.97;;;;;;;6.82;96.86;97878.22;5084049;28;20021;-69
2022/02/15 03:43:32;;;;;;;8.52;3.83;;;;;;;6.71;97.04;97880.16;5084518;28;20343;-70
2022/02/15 03:45:58;;;;;;;9.38;4.28;;;;;;;6.74;96.95;97879.22;5084547;28;20016;-70
2022/02/15 03:48:23;;;;;;;8.85;5.15;;;;;;;6.72;96.96;97895.78;5084138;28;20083;-70
2022/02/15 03:50:49;;;;;;;9.77;4.38;;;;;;;6.73;97.07;97894.06;5084187;28;20038;-70
2022/02/15 03:53:17;;;;;;;9.77;4.78;;;;;;;6.71;96.82;97901.06;5083977;28;20031;-70
2022/02/15 03:55:44;;;;;;;8.13;4.10;;;;;;;6.73;97.40;97904.50;5083149;28;20070;-70
2022/02/15 03:58:10;;;;;;;10.85;4.20;;;;;;;6.71;97.12;97910.66;5083727;28;20216;-70
2022/02/15 04:00:35;;;;;;;10.32;4.80;;;;;;;6.75;97.16;97920.19;5083788;28;20036;-70
2022/02/15 04:03:01;;;;;;;8.63;4.63;;;;;;;6.69;97.53;97918.53;5083646;28;20024;-70
2022/02/15 04:05:26;;;;;;;7.07;3.97;;;;;;;6.75;97.08;97931.50;5083739;28;20227;-70
2022/02/15 04:07:51;;;;;;;8.15;3.90;;;;;;;6.77;97.21;97921.88;5083398;28;20020;-70
2022/02/15 04:10:17;;;;;;;7.18;4.25;;;;;;;6.75;96.76;97923.66;5083591;28;20048;-70
2022/02/15 04:12:44;;;;;;;7.28;3.70;;;;;;;6.58;96.97;97917.81;5083389;28;20194;-70
2022/02/15 04:15:10;;;;;;;10.38;4.07;;;;;;;6.46;96.95;97925.84;5083435;28;20028;-70
2022/02/15 04:17:35;;;;;;;13.95;4.78;;;;;;;6.47;97.35;97927.56;5083525;28;20197;-70
2022/02/15 04:20:02;;;;;;;11.32;3.90;;;;;;;6.36;97.09;97934.72;5083644;28;20027;-70
2022/02/15 04:22:28;;;;;;;7.50;4.35;;;;;;;6.38;97.75;97936.41;5083483;28;20028;-70
2022/02/15 04:24:53;;;;;;;8.93;4.25;;;;;;;6.41;97.43;97940.72;5083681;28;20047;-70
2022/02/15 04:27:19;;;;;;;10.02;4.20;;;;;;;6.41;97.80;97948.56;5083768;28;20045;-70
2022/02/15 04:29:44;;;;;;;9.65;4.10;;;;;;;6.42;97.48;97945.94;5083488;28;20331;-70
2022/02/15 04:32:10;;;;;;;10.77;4.93;;;;;;;6.49;97.53;97942.34;5083333;28;20055;-70
2022/02/15 04:34:36;;;;;;;7.68;4.55;;;;;;;6.52;97.53;97950.13;5083758;28;20060;-70
2022/02/15 04:37:01;;;;;;;7.15;3.80;;;;;;;6.59;97.43;97953.53;5083297;28;20105;-70
2022/02/15 04:39:27;;;;;;;9.27;4.68;;;;;;;6.61;97.05;97956.97;5083515;28;20024;-70
2022/02/15 04:41:52;;;;;;;9.38;4.38;;;;;;;6.70;97.13;97956.00;5083061;28;20083;-70
2022/02/15 04:44:17;;;;;;;8.63;4.28;;;;;;;6.69;97.14;97968.22;5082991;28;20079;-70
2022/02/15 04:46:43;;;;;;;7.85;4.38;;;;;;;6.65;97.58;97961.31;5082903;28;20094;-70
2022/02/15 04:49:08;;;;;;;11.90;5.53;;;;;;;6.68;97.59;97964.72;5081218;28;20043;-70
2022/02/15 04:51:34;;;;;;;11.60;5.05;;;;;;;6.66;98.04;97968.25;5081955;28;20078;-70
2022/02/15 04:53:59;;;;;;;11.38;5.35;;;;;;;6.63;98.04;97976.13;5082128;28;20024;-69
2022/02/15 04:56:25;;;;;;;10.07;4.28;;;;;;;6.71;97.67;97978.66;5081777;28;20027;-69
2022/02/15 04:58:50;;;;;;;7.88;4.57;;;;;;;6.65;98.18;97975.22;5081809;28;20031;-69
2022/02/15 05:01:16;;;;;;;8.50;4.25;;;;;;;6.71;97.92;97978.66;5082214;28;20021;-69
2022/02/15 05:03:42;;;;;;;10.45;5.80;;;;;;;6.63;98.30;97976.13;5082554;28;20016;-69
2022/02/15 05:06:08;;;;;;;8.63;4.90;;;;;;;6.65;98.38;97977.00;5082743;28;20032;-69
2022/02/15 05:08:33;;;;;;;7.78;4.85;;;;;;;6.63;98.09;97984.84;5085595;28;20263;-67
2022/02/15 05:10:59;;;;;;;10.65;4.70;;;;;;;6.65;98.46;97990.06;5087741;28;20036;-67
2022/02/15 05:13:25;;;;;;;11.98;4.80;;;;;;;6.66;98.38;97981.31;5087608;28;20101;-67
2022/02/15 05:15:50;;;;;;;10.57;5.38;;;;;;;6.61;98.24;97983.13;5087609;28;20033;-67
2022/02/15 05:18:16;;;;;;;12.18;6.15;;;;;;;6.58;98.32;97991.00;5087566;28;20279;-67
2022/02/15 05:20:41;;;;;;;16.55;5.72;;;;;;;6.54;98.49;97997.19;5087428;28;20028;-67
2022/02/15 05:23:07;;;;;;;19.10;6.07;;;;;;;6.56;98.27;98000.66;5087461;28;20032;-67
2022/02/15 05:25:32;;;;;;;11.25;5.15;;;;;;;6.60;98.59;97994.47;5087325;28;20338;-67
2022/02/15 05:27:58;;;;;;;7.82;4.65;;;;;;;6.56;98.62;97992.81;5087391;28;20028;-67
2022/02/15 05:30:24;;;;;;;10.63;5.60;;;;;;;6.58;98.43;97994.50;5087356;28;20238;-67
2022/02/15 05:32:50;;;;;;;12.88;6.45;;;;;;;6.61;98.27;98011.88;5087304;28;20028;-67
2022/02/15 05:35:16;;;;;;;11.68;6.00;;;;;;;6.61;98.52;98010.16;5087212;28;20028;-67
2022/02/15 05:37:43;;;;;;;10.23;5.43;;;;;;;6.59;98.19;98011.06;5087123;28;20024;-67
2022/02/15 05:40:09;;;;;;;11.70;5.68;;;;;;;6.63;98.11;98017.97;5087262;28;20028;-67
2022/02/15 05:42:35;;;;;;;12.45;6.45;;;;;;;6.56;98.28;98016.34;5087143;28;20032;-67
2022/02/15 05:45:00;;;;;;;9.35;4.65;;;;;;;6.60;98.00;98023.25;5087043;28;20069;-67
2022/02/15 05:47:26;;;;;;;8.68;4.97;;;;;;;6.60;97.86;98024.13;5087006;28;20027;-67
2022/02/15 05:52:35;;;;;;;10.38;4.88;;;;;;;6.70;97.29;98030.06;5086971;28;20355;-67
2022/02/15 05:55:01;;;;;;;7.88;4.22;;;;;;;6.72;97.03;98038.78;5086857;28;20044;-67
2022/02/15 05:57:28;;;;;;;8.20;4.38;;;;;;;6.69;96.80;98049.28;5086796;28;20097;-67
2022/02/15 05:59:54;;;;;;;6.90;3.72;;;;;;;6.71;96.99;98047.50;5086749;28;20369;-67
2022/02/15 06:02:20;;;;;;;7.78;4.03;;;;;;;6.65;97.12;98058.88;5086958;28;20308;-67
2022/02/15 06:04:46;;;;;;;12.75;4.22;;;;;;;6.60;97.60;98057.22;5086621;28;20027;-67
2022/02/15 06:07:12;;;;;;;7.93;4.28;;;;;;;6.57;97.81;98059.88;5086570;28;20016;-67
2022/02/15 06:09:37;;;;;;;7.85;4.55;;;;;;;6.53;97.68;98073.88;5086627;28;20019;-67
2022/02/15 06:12:03;;;;;;;10.13;5.35;;;;;;;6.59;97.64;98073.81;5086570;28;20092;-67
2022/02/15 06:14:29;;;;;;;13.82;5.00;;;;;;;6.56;97.82;98084.31;5086555;28;20020;-67
2022/02/15 06:16:54;;;;;;;11.27;5.15;;;;;;;6.52;98.04;98087.84;5086501;28;20042;-67
2022/02/15 06:19:19;;;;;;;9.48;4.80;;;;;;;6.54;97.83;98091.28;5085473;28;20216;-67
2022/02/15 06:21:46;;;;;;;11.23;4.63;;;;;;;6.55;97.89;98098.22;5086488;28;20048;-67
2022/02/15 06:24:12;;;;;;;12.85;4.95;;;;;;;6.52;97.85;98093.91;5086511;28;20025;-67
2022/02/15 06:26:37;;;;;;;12.77;5.07;;;;;;;6.52;97.49;98098.31;5086536;28;20024;-67
2022/02/15 06:29:03;;;;;;;12.45;6.15;;;;;;;6.50;97.25;98110.50;5086239;28;20316;-67
2022/02/15 06:31:28;;;;;;;9.68;5.43;;;;;;;6.49;97.64;98103.56;5086044;28;20056;-67
2022/02/15 06:33:54;;;;;;;9.68;4.70;;;;;;;6.52;97.40;98114.00;5086164;28;20024;-67
2022/02/15 06:36:19;;;;;;;10.77;5.22;;;;;;;6.52;97.29;98114.84;5086101;28;20020;-67
2022/02/15 06:38:44;;;;;;;13.00;4.97;;;;;;;6.51;97.43;98120.97;5086303;28;20025;-67
2022/02/15 06:41:11;;;;;;;13.10;5.63;;;;;;;6.63;96.60;98127.78;5085943;28;20254;-67
2022/02/15 06:43:36;;;;;;;8.25;5.15;;;;;;;6.52;97.05;98127.06;5085941;28;20336;-67
2022/02/15 06:46:02;;;;;;;11.55;4.95;;;;;;;6.44;96.91;98132.38;5086022;28;20070;-67
2022/02/15 06:48:27;;;;;;;18.63;5.70;;;;;;;6.50;96.79;98132.31;5086165;28;20032;-67
2022/02/15 06:50:53;;;;;;;17.20;6.40;;;;;;;6.46;96.71;98135.81;5085827;28;20023;-67
2022/02/15 06:53:19;;;;;;;16.50;5.30;;;;;;;6.46;96.54;98145.44;5085783;28;20017;-67
2022/02/15 06:55:44;;;;;;;9.57;5.10;;;;;;;6.41;96.52;98147.22;5085703;28;20024;-67
2022/02/15 06:58:10;;;;;;;10.35;4.25;;;;;;;6.38;96.12;98157.69;5085679;28;20047;-67
2022/02/15 07:00:35;;;;;;;10.23;4.88;;;;;;;6.39;96.50;98159.41;5085605;28;20017;-67
2022/02/15 07:03:01;;;;;;;10.02;4.38;;;;;;;6.34;96.56;98163.84;5085611;28;20034;-67
2022/02/15 07:05:28;;;;;;;10.15;4.45;;;;;;;6.36;96.33;98169.94;5085830;28;20043;-67
2022/02/15 07:07:53;;;;;;;14.57;4.65;;;;;;;6.32;96.52;98170.81;5085455;28;20027;-67
2022/02/15 07:10:19;;;;;;;6.82;4.18;;;;;;;6.30;96.43;98170.00;5085414;28;20213;-67
2022/02/15 07:12:44;;;;;;;6.65;3.80;;;;;;;6.38;96.09;98170.75;5085539;28;20031;-67
2022/02/15 07:15:10;;;;;;;8.60;3.60;;;;;;;6.44;95.46;98184.66;5085359;28;20020;-67
2022/02/15 07:17:36;;;;;;;8.00;3.30;;;;;;;6.48;94.89;98186.34;5085516;28;20017;-67
2022/02/15 07:20:03;;;;;;;8.02;3.17;;;;;;;6.53;94.34;98188.91;5085142;28;20380;-67
2022/02/15 07:22:28;;;;;;;5.32;2.70;;;;;;;6.48;93.71;98195.91;5085141;28;20027;-67
2022/02/15 07:24:54;;;;;;;8.48;2.40;;;;;;;6.54;93.90;98198.47;5085135;28;20024;-67
2022/02/15 07:27:19;;;;;;;8.30;2.83;;;;;;;6.47;94.12;98209.88;5085109;28;20251;-67
2022/02/15 07:29:44;;;;;;;5.90;2.50;;;;;;;6.54;93.72;98206.31;5084970;28;20020;-67
2022/02/15 07:32:10;;;;;;;6.63;2.00;;;;;;;6.52;93.94;98213.34;5084867;28;20040;-67
2022/02/15 07:34:36;;;;;;;4.22;2.17;;;;;;;6.62;93.83;98204.50;5084926;28;20016;-67
2022/02/15 07:37:01;;;;;;;7.57;2.20;;;;;;;6.59;93.38;98215.84;5084924;28;20358;-67
2022/02/15 07:39:27;;;;;;;7.32;3.38;;;;;;;6.53;94.06;98215.06;5084841;28;20043;-67
2022/02/15 07:41:52;;;;;;;5.55;2.90;;;;;;;6.58;94.15;98218.47;5084791;28;20087;-67
2022/02/15 07:44:18;;;;;;;10.68;3.80;;;;;;;6.62;93.93;98225.44;5084732;28;20087;-67
2022/02/15 07:46:46;;;;;;;9.50;2.90;;;;;;;6.58;94.15;98229.81;5084742;28;20027;-67
2022/02/15 07:49:13;;;;;;;6.30;3.45;;;;;;;6.71;93.99;98230.56;5084915;28;20017;-67
2022/02/15 07:51:38;;;;;;;9.25;3.33;;;;;;;6.78;93.66;98227.00;5084664;28;20251;-67
2022/02/15 07:54:04;;;;;;;7.03;3.80;;;;;;;6.78;94.72;98237.47;5084596;28;20021;-67
2022/02/15 07:56:29;;;;;;;7.10;3.58;;;;;;;6.80;94.53;98240.91;5084806;28;20069;-67
2022/02/15 07:58:55;;;;;;;7.43;4.18;;;;;;;6.93;93.97;98252.13;5084805;28;20020;-67
2022/02/15 08:01:20;;;;;;;9.98;4.30;;;;;;;6.96;94.38;98263.38;5084631;28;20092;-67
2022/02/15 08:03:45;;;;;;;8.38;4.25;;;;;;;6.92;94.63;98261.69;5084443;28;20020;-67
2022/02/15 08:06:11;;;;;;;16.85;4.10;;;;;;;6.94;94.59;98264.28;5084402;28;20020;-67
2022/02/15 08:08:36;;;;;;;8.27;4.20;;;;;;;6.95;94.63;98261.66;5084368;28;20021;-67
2022/02/15 08:11:02;;;;;;;8.93;4.38;;;;;;;7.07;94.50;98256.31;5084403;28;20304;-67
2022/02/15 08:13:34;;;;;;;8.88;4.82;;;;;;;7.15;94.58;98264.91;5084409;28;20073;-67
2022/02/15 08:16:00;;;;;;;8.75;4.53;;;;;;;7.30;94.35;98264.75;5084574;28;20216;-67
2022/02/15 08:18:26;;;;;;;7.32;4.40;;;;;;;7.49;93.32;98271.47;5084478;28;20020;-67
2022/02/15 08:20:51;;;;;;;10.45;4.55;;;;;;;7.57;93.31;98268.75;5084372;28;20267;-67
2022/02/15 08:23:17;;;;;;;12.18;4.45;;;;;;;7.66;93.46;98274.72;5084258;28;20217;-67
2022/02/15 08:25:42;;;;;;;7.30;3.92;;;;;;;7.79;93.26;98265.81;5084060;28;20028;-67
2022/02/15 08:28:10;;;;;;;6.90;4.05;;;;;;;7.81;92.47;98269.28;5084134;28;20028;-67
2022/02/15 08:30:36;;;;;;;9.07;3.97;;;;;;;7.85;91.57;98270.97;5083812;28;20324;-67
2022/02/15 08:33:01;;;;;;;8.52;4.95;;;;;;;7.98;91.56;98266.44;5084174;28;20032;-67
2022/02/15 08:35:27;;;;;;;11.38;5.03;;;;;;;8.04;90.79;98277.66;5084006;28;20020;-67
2022/02/15 08:37:52;;;;;;;11.95;4.93;;;;;;;8.06;91.22;98281.13;5084233;28;20334;-67
2022/02/15 08:40:19;;;;;;;12.10;5.13;;;;;;;8.05;91.83;98274.19;5083900;28;20024;-67
2022/02/15 08:42:45;;;;;;;10.70;5.50;;;;;;;8.20;90.53;98279.16;5083462;28;20047;-67
2022/02/15 08:45:11;;;;;;;12.38;5.35;;;;;;;8.06;90.64;98285.50;5083918;28;20024;-67
2022/02/15 08:47:37;;;;;;;14.73;4.65;;;;;;;8.07;90.91;98285.47;5084149;28;20024;-67
2022/02/15 08:50:04;;;;;;;13.20;5.50;;;;;;;8.09;90.66;98294.19;5083857;28;20082;-67
2022/02/15 08:52:30;;;;;;;16.10;6.10;;;;;;;8.11;90.34;98294.19;5084061;28;20027;-67
2022/02/15 08:54:56;;;;;;;10.68;5.88;;;;;;;8.12;90.48;98296.78;5065998;28;20095;-67
2022/02/15 08:57:23;;;;;;;7.85;4.68;;;;;;;8.50;89.26;98299.69;5083878;28;20024;-67
2022/02/15 08:59:53;;;;;;;9.65;4.32;;;;;;;9.17;86.99;98298.50;5083977;28;20024;-67
2022/02/15 09:02:23;;;;;;;10.43;4.40;;;;;;;9.06;86.73;98303.06;5084990;28;20205;-67
2022/02/15 09:04:48;;;;;;;10.48;4.55;;;;;;;8.68;88.31;98315.09;5084062;28;20024;-67
2022/02/15 09:07:14;;;;;;;12.43;5.00;;;;;;;8.57;88.04;98311.81;5083888;28;20024;-67
2022/02/15 09:09:39;;;;;;;11.90;4.88;;;;;;;8.39;87.90;98313.88;5083724;28;20216;-67
2022/02/15 09:12:05;;;;;;;8.30;4.63;;;;;;;8.22;88.66;98308.88;5083647;28;20096;-67
2022/02/15 09:14:31;;;;;;;10.55;4.30;;;;;;;8.09;89.44;98307.31;5083678;28;20024;-67
2022/02/15 09:16:58;;;;;;;11.13;4.22;;;;;;;8.10;89.92;98303.78;5083688;28;20023;-67
2022/02/15 09:19:24;;;;;;;11.48;5.38;;;;;;;8.25;89.68;98306.22;5083494;28;20024;-67
2022/02/15 09:21:50;;;;;;;11.55;4.97;;;;;;;8.47;89.06;98315.47;5083813;28;20081;-67
2022/02/15 09:24:17;;;;;;;15.65;5.95;;;;;;;8.63;87.74;98311.72;5083451;28;20021;-67
2022/02/15 09:26:43;;;;;;;9.63;5.32;;;;;;;8.54;87.28;98318.84;5083508;28;20020;-67
2022/02/15 09:29:10;;;;;;;11.32;5.22;;;;;;;8.41;87.45;98318.19;5083549;28;20024;-67
2022/02/15 09:31:37;;;;;;;12.57;5.43;;;;;;;8.59;86.12;98320.53;5083353;28;20126;-67
2022/02/15 09:34:04;;;;;;;12.00;5.85;;;;;;;8.94;85.67;98326.91;5083362;28;20021;-67
2022/02/15 09:36:29;;;;;;;12.90;5.70;;;;;;;9.48;83.76;98320.63;5083496;28;20028;-67
2022/02/15 09:38:54;;;;;;;13.25;5.65;;;;;;;9.86;81.70;98325.94;5083487;28;20020;-67
2022/02/15 09:41:21;;;;;;;15.25;4.43;;;;;;;10.83;78.06;98322.81;5083532;28;20095;-67
2022/02/15 09:43:47;;;;;;;8.13;5.03;;;;;;;10.84;77.87;98329.81;5083740;28;20339;-67
2022/02/15 09:46:14;;;;;;;13.35;5.13;;;;;;;10.25;79.16;98335.66;5083730;28;20087;-67
2022/02/15 09:48:41;;;;;;;10.52;5.05;;;;;;;9.89;80.61;98328.50;5083730;28;20018;-67
2022/02/15 09:51:08;;;;;;;8.57;4.57;;;;;;;9.60;81.02;98333.53;5083276;28;20020;-67
2022/02/15 09:53:34;;;;;;;11.23;5.15;;;;;;;9.59;81.76;98334.44;5083300;28;20031;-67
2022/02/15 09:56:00;;;;;;;9.65;5.28;;;;;;;9.31;81.83;98335.84;5086700;28;20033;-67
2022/02/15 09:58:25;;;;;;;10.02;4.53;;;;;;;9.03;82.98;98347.75;5086850;28;20211;-67
2022/02/15 10:00:52;;;;;;;13.13;4.47;;;;;;;8.91;83.39;98342.72;5086698;28;20024;-67
2022/02/15 10:03:18;;;;;;;8.13;4.05;;;;;;;8.72;83.62;98352.66;5086764;28;20211;-67
2022/02/15 10:05:48;;;;;;;10.27;4.50;;;;;;;8.83;84.83;98346.34;5086704;28;20044;-67
2022/02/15 10:08:14;;;;;;;15.18;4.30;;;;;;;8.94;84.76;98358.41;5086622;28;20077;-67
2022/02/15 10:10:39;;;;;;;7.55;3.42;;;;;;;9.46;81.70;98351.34;5086835;28;20012;-67
2022/02/15 10:13:10;;;;;;;11.45;3.40;;;;;;;10.20;80.02;98366.44;5086663;28;20023;-67
2022/02/15 10:15:41;;;;;;;6.07;2.70;;;;;;;9.89;78.56;98366.19;5086706;28;20024;-67
2022/02/15 10:18:15;;;;;;;8.95;3.13;;;;;;;10.07;77.01;98370.22;5086562;28;20032;-67
2022/02/15 10:20:43;;;;;;;5.38;2.97;;;;;;;10.39;78.33;98367.75;5086451;28;20044;-67
2022/02/15 10:23:23;;;;;;;7.40;3.30;;;;;;;10.71;77.47;98371.38;5086454;28;20027;-67
2022/02/15 10:25:50;;;;;;;9.68;3.17;;;;;;;11.35;74.97;98374.97;5086545;28;20088;-67
2022/02/15 10:28:18;;;;;;;7.35;3.40;;;;;;;11.30;73.54;98383.03;5086910;28;20028;-67
2022/02/15 10:30:49;;;;;;;6.47;3.08;;;;;;;10.80;73.92;98376.38;5086622;28;20040;-67
2022/02/15 10:33:17;;;;;;;10.57;3.43;;;;;;;10.32;75.27;98384.59;5086611;28;20032;-67
2022/02/15 10:35:55;;;;;;;9.57;3.65;;;;;;;10.71;74.74;98386.28;5086409;28;20024;-67
2022/02/15 10:38:29;;;;;;;4.15;2.88;;;;;;;10.70;75.98;98384.56;5086387;28;20028;-67
2022/02/15 10:40:59;;;;;;;7.63;3.92;;;;;;;11.06;76.12;98388.94;5086597;28;20283;-66
2022/02/15 10:43:39;;;;;;;10.30;4.75;;;;;;;11.69;74.42;98382.00;5086717;28;20091;-67
2022/02/15 10:46:12;;;;;;;10.90;4.93;;;;;;;11.32;75.12;98386.47;5086834;28;20024;-68
2022/02/15 10:48:38;;;;;;;7.40;4.07;;;;;;;10.90;75.42;98382.31;5086532;28;20087;-68
2022/02/15 10:51:04;;;;;;;11.65;4.85;;;;;;;10.27;76.09;98394.31;5086232;28;20027;-68
2022/02/15 10:53:30;;;;;;;9.32;4.65;;;;;;;9.80;76.98;98391.78;5086047;28;20031;-67
2022/02/15 10:55:57;;;;;;;9.50;4.47;;;;;;;9.48;78.18;98394.19;5085843;28;20028;-67
2022/02/15 10:58:24;;;;;;;9.05;4.15;;;;;;;9.18;78.65;98400.00;5085847;28;20073;-67
2022/02/15 11:00:50;;;;;;;9.18;3.55;;;;;;;8.82;80.00;98390.13;5085593;28;20021;-67
2022/02/15 11:03:19;;;;;;;9.10;3.40;;;;;;;8.86;80.88;98392.66;5085588;28;20047;-67
2022/02/15 11:05:44;;;;;;;6.68;3.13;;;;;;;9.00;80.76;98395.94;5085144;28;20024;-67
2022/02/15 11:08:11;;;;;;;13.50;4.22;;;;;;;9.21;80.88;98394.69;5085569;28;20091;-67
2022/02/15 11:11:03;;;;;;;9.75;4.03;;;;;;;9.34;80.39;98393.59;5085509;28;20024;-67
2022/02/15 11:13:30;;;;;;;9.75;4.22;;;;;;;10.01;79.77;98388.72;5085584;28;20087;-67
2022/02/15 11:15:56;;;;;;;11.32;4.15;;;;;;;10.25;77.97;98396.16;5085500;28;20036;-67
2022/02/15 11:18:32;;;;;;;12.25;3.80;;;;;;;10.18;76.17;98394.53;5085442;28;20020;-67
2022/02/15 11:21:01;;;;;;;9.02;3.50;;;;;;;9.91;75.19;98401.19;5085274;28;20028;-67
2022/02/15 11:23:29;;;;;;;7.32;3.00;;;;;;;9.94;76.30;98401.13;5085282;28;20029;-67
2022/02/15 11:26:08;;;;;;;6.63;3.05;;;;;;;9.85;75.77;98395.19;5085108;28;20052;-67
2022/02/15 11:28:45;;;;;;;8.73;3.15;;;;;;;9.71;76.40;98397.25;5085364;28;20077;-67
2022/02/15 11:31:11;;;;;;;5.80;2.55;;;;;;;9.65;75.31;98400.00;5085000;28;20254;-67
2022/02/15 11:33:39;;;;;;;9.18;2.83;;;;;;;9.48;74.91;98404.69;5085003;28;20036;-67
2022/02/15 11:36:13;;;;;;;6.07;2.03;;;;;;;9.40;74.36;98399.56;5084957;28;20042;-67
2022/02/15 11:38:49;;;;;;;5.32;2.75;;;;;;;9.21;75.54;98405.19;5085172;28;20197;-67
2022/02/15 11:41:15;;;;;;;7.50;2.33;;;;;;;9.17;74.97;98403.53;5084993;28;20096;-67
2022/02/15 11:43:40;;;;;;;10.85;2.92;;;;;;;9.11;75.94;98406.25;5084829;28;20036;-67